createdAt,value
2023-05-02T00:01:16.844Z,100661.81
2023-05-02T00:03:46.032Z,100657.44
2023-05-02T00:06:15.279Z,100652.13
2023-05-02T00:08:44.232Z,100653.00
2023-05-02T00:11:14.414Z,100656.56
2023-05-02T00:13:44.877Z,100655.81
2023-05-02T00:16:14.044Z,100651.44
2023-05-02T00:18:42.807Z,100646.13
2023-05-02T00:21:12.902Z,100651.44
2023-05-02T00:23:42.194Z,100645.28
2023-05-02T00:26:11.286Z,100642.81
2023-05-02T00:28:45.458Z,100641.06
2023-05-02T00:31:14.660Z,100634.09
2023-05-02T00:33:43.583Z,100634.09
2023-05-02T00:36:16.082Z,100629.72
2023-05-02T00:38:46.115Z,100621.84
2023-05-02T00:41:15.266Z,100611.25
2023-05-02T00:43:45.379Z,100614.06
2023-05-02T00:46:15.490Z,100611.44
2023-05-02T00:48:45.242Z,100615.03
2023-05-02T00:51:14.513Z,100609.78
2023-05-02T00:53:43.212Z,100604.56
2023-05-02T00:56:12.537Z,100602.81
2023-05-02T00:58:41.790Z,100601.09
2023-05-02T01:01:29.244Z,100600.22
2023-05-02T01:04:05.833Z,100598.50
2023-05-02T01:06:41.746Z,100597.69
2023-05-02T01:09:18.588Z,100594.19
2023-05-02T01:11:50.034Z,100594.19
2023-05-02T01:14:20.493Z,100589.84
2023-05-02T01:16:50.235Z,100592.50
2023-05-02T01:19:26.808Z,100593.44
2023-05-02T01:21:57.677Z,100592.63
2023-05-02T01:24:27.875Z,100590.91
2023-05-02T01:27:02.982Z,100591.84
2023-05-02T01:29:35.913Z,100590.28
2023-05-02T01:32:05.825Z,100584.09
2023-05-02T01:34:36.837Z,100583.19
2023-05-02T01:37:08.204Z,100584.09
2023-05-02T01:39:39.453Z,100579.75
2023-05-02T01:42:08.847Z,100578.06
2023-05-02T01:44:39.747Z,100571.84
2023-05-02T01:47:10.839Z,100563.94
2023-05-02T01:49:42.078Z,100571.06
2023-05-02T01:52:13.125Z,100563.13
2023-05-02T01:54:42.558Z,100565.84
2023-05-02T01:57:13.473Z,100567.63
2023-05-02T01:59:44.894Z,100573.00
2023-05-02T02:02:15.135Z,100559.69
2023-05-02T02:04:48.580Z,100562.41
2023-05-02T02:07:17.998Z,100554.44
2023-05-02T02:09:46.732Z,100557.16
2023-05-02T02:12:18.911Z,100553.63
2023-05-02T02:14:51.085Z,100555.50
2023-05-02T02:17:25.796Z,100544.94
2023-05-02T02:19:57.289Z,100546.66
2023-05-02T02:22:28.568Z,100538.78
2023-05-02T02:24:58.511Z,100539.63
2023-05-02T02:27:28.389Z,100537.91
2023-05-02T02:29:58.996Z,100549.56
2023-05-02T02:32:28.517Z,100543.34
2023-05-02T02:34:57.570Z,100542.53
2023-05-02T02:37:30.853Z,100549.59
2023-05-02T02:40:04.034Z,100544.28
2023-05-02T02:42:40.111Z,100551.34
2023-05-02T02:45:20.032Z,100539.81
2023-05-02T02:47:52.130Z,100538.91
2023-05-02T02:50:24.297Z,100533.59
2023-05-02T02:52:56.553Z,100530.00
2023-05-02T02:55:30.612Z,100528.22
2023-05-02T02:58:01.619Z,100523.81
2023-05-02T03:00:33.626Z,100533.50
2023-05-02T03:03:02.954Z,100530.00
2023-05-02T03:05:34.123Z,100532.59
2023-05-02T03:08:03.378Z,100530.84
2023-05-02T03:10:33.738Z,100530.81
2023-05-02T03:13:03.146Z,100534.31
2023-05-02T03:15:56.316Z,100524.56
2023-05-02T03:18:31.815Z,100529.88
2023-05-02T03:21:01.186Z,100533.47
2023-05-02T03:23:30.646Z,100530.81
2023-05-02T03:25:59.568Z,100531.72
2023-05-02T03:28:28.654Z,100531.53
2023-05-02T03:30:57.661Z,100528.06
2023-05-02T03:33:27.242Z,100532.53
2023-05-02T03:35:57.554Z,100528.84
2023-05-02T03:38:27.271Z,100527.88
2023-05-02T03:40:57.974Z,100534.94
2023-05-02T03:43:28.224Z,100530.38
2023-05-02T03:45:57.929Z,100528.41
2023-05-02T03:48:27.948Z,100531.72
2023-05-02T03:50:58.656Z,100530.81
2023-05-02T03:53:28.225Z,100529.06
2023-05-02T03:55:59.983Z,100527.28
2023-05-02T03:58:40.812Z,100535.19
2023-05-02T04:01:14.902Z,100540.34
2023-05-02T04:03:45.855Z,100547.28
2023-05-02T04:06:18.122Z,100537.41
2023-05-02T04:08:52.006Z,100538.97
2023-05-02T04:11:21.188Z,100545.91
2023-05-02T04:13:52.710Z,100540.47
2023-05-02T04:16:23.027Z,100534.06
2023-05-02T04:18:52.426Z,100538.34
2023-05-02T04:21:23.065Z,100547.09
2023-05-02T04:23:52.482Z,100545.16
2023-05-02T04:26:21.775Z,100549.41
2023-05-02T04:29:02.409Z,100548.38
2023-05-02T04:31:32.724Z,100554.44
2023-05-02T04:34:04.360Z,100561.34
2023-05-02T04:36:40.348Z,100558.47
2023-05-02T04:39:12.501Z,100556.53
2023-05-02T04:41:47.091Z,100555.47
2023-05-02T04:44:17.202Z,100557.16
2023-05-02T04:46:47.016Z,100560.50
2023-05-02T04:49:17.707Z,100557.69
2023-05-02T04:51:48.390Z,100570.78
2023-05-02T04:54:17.801Z,100567.91
2023-05-02T04:56:46.774Z,100567.69
2023-05-02T04:59:16.968Z,100567.53
2023-05-02T05:01:46.542Z,100569.03
2023-05-02T05:04:15.823Z,100571.44
2023-05-02T05:06:44.921Z,100573.75
2023-05-02T05:09:15.547Z,100568.09
2023-05-02T05:11:46.271Z,100574.91
2023-05-02T05:14:17.106Z,100563.91
2023-05-02T05:16:49.100Z,100553.81
2023-05-02T05:19:18.492Z,100567.63
2023-05-02T05:21:47.278Z,100561.81
2023-05-02T05:24:20.691Z,100563.19
2023-05-02T05:26:50.461Z,100569.88
2023-05-02T05:29:20.066Z,100562.16
2023-05-02T05:31:48.998Z,100568.66
2023-05-02T05:34:23.415Z,100574.31
2023-05-02T05:36:56.430Z,100569.97
2023-05-02T05:39:28.790Z,100570.88
2023-05-02T05:42:00.786Z,100572.22
2023-05-02T05:44:30.166Z,100584.88
2023-05-02T05:46:59.803Z,100584.13
2023-05-02T05:49:30.349Z,100578.03
2023-05-02T05:51:59.523Z,100582.78
2023-05-02T05:54:29.973Z,100579.44
2023-05-02T05:57:03.727Z,100581.50
2023-05-02T05:59:35.957Z,100583.56
2023-05-02T06:02:05.648Z,100587.34
2023-05-02T06:04:35.265Z,100587.53
2023-05-02T06:07:04.379Z,100594.06
2023-05-02T06:09:34.795Z,100584.69
2023-05-02T06:12:03.809Z,100596.63
2023-05-02T06:14:34.992Z,100600.59
2023-05-02T06:17:04.038Z,100602.81
2023-05-02T06:19:33.122Z,100601.56
2023-05-02T06:22:02.047Z,100609.94
2023-05-02T06:24:31.175Z,100619.41
2023-05-02T06:27:02.632Z,100616.25
2023-05-02T06:29:31.932Z,100615.88
2023-05-02T06:32:00.841Z,100619.91
2023-05-02T06:34:30.209Z,100625.00
2023-05-02T06:36:59.067Z,100625.44
2023-05-02T06:39:28.394Z,100631.47
2023-05-02T06:41:58.127Z,100630.06
2023-05-02T06:44:31.202Z,100636.88
2023-05-02T06:47:00.250Z,100640.88
2023-05-02T06:49:29.289Z,100635.19
2023-05-02T06:51:58.055Z,100641.97
2023-05-02T06:54:27.103Z,100649.59
2023-05-02T06:56:55.975Z,100643.06
2023-05-02T06:59:25.044Z,100648.09
2023-05-02T07:01:55.217Z,100651.41
2023-05-02T07:04:25.223Z,100647.41
2023-05-02T07:06:54.803Z,100656.88
2023-05-02T07:09:23.947Z,100665.47
2023-05-02T07:11:52.725Z,100663.31
2023-05-02T07:14:22.015Z,100680.03
2023-05-02T07:16:50.902Z,100674.34
2023-05-02T07:19:21.581Z,100675.81
2023-05-02T07:21:50.669Z,100680.78
2023-05-02T07:24:19.782Z,100684.88
2023-05-02T07:26:48.740Z,100678.00
2023-05-02T07:29:17.830Z,100679.41
2023-05-02T07:31:47.050Z,100684.09
2023-05-02T07:34:16.144Z,100689.97
2023-05-02T07:36:46.759Z,100693.97
2023-05-02T07:39:15.963Z,100701.31
2023-05-02T07:41:44.734Z,100703.47
2023-05-02T07:44:13.952Z,100713.72
2023-05-02T07:46:42.994Z,100708.84
2023-05-02T07:49:12.271Z,100707.53
2023-05-02T07:51:45.753Z,100711.47
2023-05-02T07:54:19.953Z,100719.22
2023-05-02T07:56:49.024Z,100714.63
2023-05-02T07:59:20.377Z,100718.09
2023-05-02T08:01:49.287Z,100726.19
2023-05-02T08:04:18.479Z,100723.38
2023-05-02T08:06:47.824Z,100730.16
2023-05-02T08:09:16.899Z,100730.66
2023-05-02T08:11:47.650Z,100730.53
2023-05-02T08:14:17.352Z,100731.22
2023-05-02T08:16:46.771Z,100730.00
2023-05-02T08:19:16.343Z,100731.25
2023-05-02T08:21:45.132Z,100739.72
2023-05-02T08:24:14.317Z,100732.97
2023-05-02T08:26:43.080Z,100735.97
2023-05-02T08:29:13.874Z,100735.13
2023-05-02T08:31:43.092Z,100731.66
2023-05-02T08:34:12.224Z,100725.47
2023-05-02T08:36:41.405Z,100732.78
2023-05-02T08:39:10.848Z,100727.69
2023-05-02T08:41:39.782Z,100736.72
2023-05-02T08:44:08.941Z,100737.59
2023-05-02T08:46:41.891Z,100739.13
2023-05-02T08:49:12.499Z,100747.56
2023-05-02T08:51:42.668Z,100753.53
2023-05-02T08:54:12.116Z,100757.09
2023-05-02T08:56:42.478Z,100757.78
2023-05-02T08:59:11.688Z,100758.25
2023-05-02T09:01:42.643Z,100762.13
2023-05-02T09:04:12.368Z,100770.63
2023-05-02T09:06:41.215Z,100769.22
2023-05-02T09:09:10.482Z,100777.59
2023-05-02T09:11:39.879Z,100773.91
2023-05-02T09:14:15.491Z,100776.41
2023-05-02T09:16:46.503Z,100778.94
2023-05-02T09:19:25.045Z,100783.94
2023-05-02T09:21:54.186Z,100783.53
2023-05-02T09:24:23.583Z,100790.03
2023-05-02T09:26:59.918Z,100787.47
2023-05-02T09:29:30.697Z,100800.03
2023-05-02T09:32:01.028Z,100802.53
2023-05-02T09:34:30.946Z,100795.94
2023-05-02T09:36:59.768Z,100793.53
2023-05-02T09:39:30.072Z,100811.72
2023-05-02T09:41:59.725Z,100816.94
2023-05-02T09:44:37.432Z,100828.97
2023-05-02T09:47:09.365Z,100817.59
2023-05-02T09:49:42.605Z,100819.00
2023-05-02T09:52:12.253Z,100836.22
2023-05-02T09:54:41.505Z,100842.81
2023-05-02T09:57:11.300Z,100846.16
2023-05-02T09:59:41.245Z,100846.00
2023-05-02T10:02:13.480Z,100853.81
2023-05-02T10:04:43.153Z,100849.63
2023-05-02T10:07:13.563Z,100857.22
2023-05-02T10:09:44.595Z,100869.91
2023-05-02T10:12:16.878Z,100858.59
2023-05-02T10:14:50.178Z,100875.00
2023-05-02T10:17:24.346Z,100880.25
2023-05-02T10:19:57.238Z,100881.75
2023-05-02T10:22:27.121Z,100897.31
2023-05-02T10:25:00.072Z,100893.38
2023-05-02T10:27:30.831Z,100898.16
2023-05-02T10:30:00.840Z,100900.09
2023-05-02T10:32:31.200Z,100907.16
2023-05-02T10:35:04.199Z,100898.16
2023-05-02T10:37:39.729Z,100901.06
2023-05-02T10:40:11.455Z,100898.47
2023-05-02T10:42:43.272Z,100899.34
2023-05-02T10:45:13.269Z,100912.34
2023-05-02T10:47:44.662Z,100914.41
2023-05-02T10:50:13.948Z,100918.50
2023-05-02T10:52:42.884Z,100914.59
2023-05-02T10:55:20.550Z,100928.56
2023-05-02T10:58:08.244Z,100927.19
2023-05-02T11:00:37.686Z,100939.03
2023-05-02T11:03:07.962Z,100942.59
2023-05-02T11:05:57.252Z,100943.78
2023-05-02T11:08:32.888Z,100948.16
2023-05-02T11:11:17.022Z,100953.09
2023-05-02T11:13:54.985Z,100962.03
2023-05-02T11:16:24.222Z,100965.56
2023-05-02T11:19:00.903Z,100964.09
2023-05-02T11:21:32.810Z,100973.09
2023-05-02T11:24:20.955Z,100982.44
2023-05-02T11:26:50.855Z,100990.63
2023-05-02T11:29:34.432Z,100999.72
2023-05-02T11:32:04.008Z,101011.69
2023-05-02T11:34:46.433Z,101014.59
2023-05-02T11:37:16.795Z,101026.94
2023-05-02T11:39:46.735Z,101028.50
2023-05-02T11:42:31.269Z,101025.97
2023-05-02T11:45:01.461Z,101039.09
2023-05-02T11:47:34.157Z,101039.88
2023-05-02T11:50:08.089Z,101044.88
2023-05-02T11:52:38.786Z,101055.09
2023-05-02T11:55:11.739Z,101065.09
2023-05-02T11:57:41.303Z,101073.84
2023-05-02T12:00:12.742Z,101077.34
2023-05-02T12:02:43.928Z,101081.91
2023-05-02T12:05:15.274Z,101085.91
2023-05-02T12:07:45.937Z,101106.25
2023-05-02T12:10:15.020Z,101105.22
2023-05-02T12:12:44.969Z,101111.66
2023-05-02T12:15:14.197Z,101120.97
2023-05-02T12:17:44.659Z,101116.63
2023-05-02T12:20:15.775Z,101108.38
2023-05-02T12:22:45.088Z,101114.44
2023-05-02T12:25:13.844Z,101114.06
2023-05-02T12:27:43.252Z,101127.00
2023-05-02T12:30:26.189Z,101126.38
2023-05-02T12:32:59.095Z,101139.00
2023-05-02T12:35:30.269Z,101147.16
2023-05-02T12:38:09.615Z,101151.09
2023-05-02T12:40:40.165Z,101154.63
2023-05-02T12:43:10.756Z,101158.97
2023-05-02T12:45:40.267Z,101155.81
2023-05-02T12:48:19.438Z,101171.38
2023-05-02T12:50:50.227Z,101176.47
2023-05-02T12:53:19.524Z,101184.19
2023-05-02T12:55:48.422Z,101189.22
2023-05-02T12:58:17.476Z,101193.50
2023-05-02T13:00:47.798Z,101192.69
2023-05-02T13:03:17.212Z,101201.03
2023-05-02T13:05:46.444Z,101198.88
2023-05-02T13:08:17.031Z,101210.03
2023-05-02T13:10:45.951Z,101205.03
2023-05-02T13:13:16.133Z,101211.88
2023-05-02T13:15:45.174Z,101220.34
2023-05-02T13:18:14.433Z,101232.72
2023-05-02T13:20:43.480Z,101239.91
2023-05-02T13:23:12.807Z,101242.63
2023-05-02T13:25:43.122Z,101241.78
2023-05-02T13:28:12.168Z,101248.69
2023-05-02T13:30:41.189Z,101245.91
2023-05-02T13:33:10.302Z,101254.69
2023-05-02T13:35:39.319Z,101261.34
2023-05-02T13:38:08.349Z,101264.22
2023-05-02T13:40:37.202Z,101262.66
2023-05-02T13:43:07.612Z,101263.34
2023-05-02T13:45:36.653Z,101277.47
2023-05-02T13:48:06.308Z,101271.22
2023-05-02T13:50:37.395Z,101268.16
2023-05-02T13:53:06.606Z,101276.91
2023-05-02T13:55:35.622Z,101282.00
2023-05-02T13:58:05.544Z,101284.38
2023-05-02T14:00:35.760Z,101298.03
2023-05-02T14:03:05.226Z,101302.84
2023-05-02T14:05:34.435Z,101301.31
2023-05-02T14:08:03.495Z,101315.69
2023-05-02T14:10:32.334Z,101314.94
2023-05-02T14:13:01.586Z,101312.78
2023-05-02T14:15:30.660Z,101329.78
2023-05-02T14:18:01.307Z,101322.03
2023-05-02T14:20:30.369Z,101324.78
2023-05-02T14:22:59.452Z,101333.03
2023-05-02T14:25:28.422Z,101332.94
2023-05-02T14:27:57.457Z,101345.06
2023-05-02T14:30:26.235Z,101344.31
2023-05-02T14:32:55.908Z,101350.41
2023-05-02T14:35:26.289Z,101351.38
2023-05-02T14:37:55.584Z,101359.50
2023-05-02T14:40:24.350Z,101361.97
2023-05-02T14:42:53.587Z,101355.59
2023-05-02T14:45:22.587Z,101362.03
2023-05-02T14:47:52.530Z,101363.84
2023-05-02T14:50:21.546Z,101364.66
2023-05-02T14:52:52.069Z,101374.34
2023-05-02T14:55:20.946Z,101377.72
2023-05-02T14:57:50.445Z,101376.66
2023-05-02T15:00:21.159Z,101375.66
2023-05-02T15:02:50.286Z,101374.28
2023-05-02T15:05:19.352Z,101367.72
2023-05-02T15:07:48.445Z,101379.00
2023-05-02T15:10:18.786Z,101376.13
2023-05-02T15:12:50.903Z,101378.63
2023-05-02T15:15:20.403Z,101382.13
2023-05-02T15:17:49.477Z,101387.22
2023-05-02T15:20:18.239Z,101390.59
2023-05-02T15:22:47.342Z,101386.03
2023-05-02T15:25:16.187Z,101393.97
2023-05-02T15:27:46.738Z,101401.81
2023-05-02T15:30:17.711Z,101398.31
2023-05-02T15:32:47.330Z,101409.56
2023-05-02T15:35:16.184Z,101392.97
2023-05-02T15:37:45.421Z,101401.88
2023-05-02T15:40:15.441Z,101411.66
2023-05-02T15:42:46.164Z,101413.41
2023-05-02T15:45:15.021Z,101411.22
2023-05-02T15:47:44.218Z,101409.91
2023-05-02T15:50:13.644Z,101414.81
2023-05-02T15:52:42.801Z,101413.41
2023-05-02T15:55:11.836Z,101424.81
2023-05-02T15:57:40.868Z,101422.41
2023-05-02T16:00:16.840Z,101419.53
2023-05-02T16:02:46.374Z,101436.25
2023-05-02T16:05:15.329Z,101439.38
2023-05-02T16:07:44.366Z,101447.84
2023-05-02T16:10:13.502Z,101456.69
2023-05-02T16:12:42.686Z,101456.41
2023-05-02T16:15:13.014Z,101463.31
2023-05-02T16:17:43.027Z,101466.28
2023-05-02T16:20:13.034Z,101468.59
2023-05-02T16:22:44.027Z,101462.88
2023-05-02T16:25:12.889Z,101479.94
2023-05-02T16:27:42.086Z,101474.50
2023-05-02T16:30:12.772Z,101481.16
2023-05-02T16:32:42.065Z,101478.19
2023-05-02T16:35:13.108Z,101483.97
2023-05-02T16:37:42.860Z,101487.91
2023-05-02T16:40:12.319Z,101494.41
2023-05-02T16:42:41.517Z,101481.59
2023-05-02T16:45:11.059Z,101471.31
2023-05-02T16:47:41.738Z,101477.88
2023-05-02T16:50:10.860Z,101488.94
2023-05-02T16:52:39.893Z,101492.91
2023-05-02T16:55:09.057Z,101494.03
2023-05-02T16:57:39.115Z,101487.78
2023-05-02T17:00:11.109Z,101492.91
2023-05-02T17:02:42.154Z,101499.09
2023-05-02T17:05:11.752Z,101494.59
2023-05-02T17:07:40.766Z,101500.09
2023-05-02T17:10:10.114Z,101507.63
2023-05-02T17:12:39.324Z,101508.56
2023-05-02T17:15:08.580Z,101502.38
2023-05-02T17:17:37.746Z,101507.53
2023-05-02T17:20:08.712Z,101513.44
2023-05-02T17:22:38.793Z,101509.22
2023-05-02T17:25:07.935Z,101527.78
2023-05-02T17:27:39.773Z,101525.63
2023-05-02T17:30:10.173Z,101512.91
2023-05-02T17:32:40.706Z,101514.25
2023-05-02T17:35:11.710Z,101519.94
2023-05-02T17:37:41.217Z,101516.91
2023-05-02T17:40:11.070Z,101523.28
2023-05-02T17:42:40.478Z,101527.34
2023-05-02T17:45:09.977Z,101521.44
2023-05-02T17:47:40.428Z,101520.28
2023-05-02T17:50:09.693Z,101526.19
2023-05-02T17:52:40.259Z,101522.22
2023-05-02T17:55:10.044Z,101531.63
2023-05-02T17:57:40.792Z,101536.34
2023-05-02T18:00:10.262Z,101534.03
2023-05-02T18:02:39.967Z,101538.47
2023-05-02T18:05:09.612Z,101540.34
2023-05-02T18:07:41.509Z,101548.44
2023-05-02T18:10:11.789Z,101552.97
2023-05-02T18:12:40.862Z,101561.38
2023-05-02T18:15:10.047Z,101561.50
2023-05-02T18:17:39.426Z,101569.00
2023-05-02T18:20:10.017Z,101564.16
2023-05-02T18:22:40.104Z,101574.38
2023-05-02T18:25:10.571Z,101575.72
2023-05-02T18:27:39.915Z,101594.47
2023-05-02T18:30:09.342Z,101585.84
2023-05-02T18:32:39.868Z,101592.47
2023-05-02T18:35:10.487Z,101596.03
2023-05-02T18:37:41.167Z,101604.25
2023-05-02T18:40:12.628Z,101597.59
2023-05-02T18:42:41.871Z,101607.97
2023-05-02T18:45:10.807Z,101604.53
2023-05-02T18:47:40.240Z,101602.47
2023-05-02T18:50:09.653Z,101601.94
2023-05-02T18:52:38.917Z,101604.00
2023-05-02T18:55:08.175Z,101607.66
2023-05-02T18:57:38.728Z,101611.38
2023-05-02T19:00:10.553Z,101609.75
2023-05-02T19:02:45.437Z,101611.19
2023-05-02T19:05:14.697Z,101620.22
2023-05-02T19:07:45.760Z,101621.53
2023-05-02T19:10:14.778Z,101622.03
2023-05-02T19:12:46.999Z,101618.66
2023-05-02T19:15:16.242Z,101621.63
2023-05-02T19:17:45.733Z,101622.59
2023-05-02T19:20:14.742Z,101620.09
2023-05-02T19:22:46.156Z,101626.47
2023-05-02T19:25:15.232Z,101634.78
2023-05-02T19:27:47.752Z,101636.00
2023-05-02T19:30:16.801Z,101629.88
2023-05-02T19:32:48.628Z,101638.88
2023-05-02T19:35:17.546Z,101639.91
2023-05-02T19:37:46.644Z,101638.34
2023-05-02T19:40:16.670Z,101638.44
2023-05-02T19:42:47.805Z,101642.31
2023-05-02T19:45:17.340Z,101637.97
2023-05-02T19:47:47.318Z,101649.59
2023-05-02T19:50:17.015Z,101660.34
2023-05-02T19:52:46.179Z,101657.78
2023-05-02T19:55:16.153Z,101669.44
2023-05-02T19:57:48.828Z,101667.81
2023-05-02T20:00:18.800Z,101664.38
2023-05-02T20:02:51.317Z,101670.66
2023-05-02T20:05:21.204Z,101674.31
2023-05-02T20:07:53.712Z,101668.19
2023-05-02T20:10:23.090Z,101666.53
2023-05-02T20:12:56.069Z,101665.69
2023-05-02T20:15:24.944Z,101671.06
2023-05-02T20:17:57.075Z,101671.19
2023-05-02T20:20:26.508Z,101672.09
2023-05-02T20:22:58.972Z,101665.97
2023-05-02T20:25:28.631Z,101672.22
2023-05-02T20:28:00.000Z,101680.25
2023-05-02T20:30:35.577Z,101670.53
2023-05-02T20:33:14.905Z,101682.09
2023-05-02T20:35:45.026Z,101681.28
2023-05-02T20:38:18.097Z,101692.81
2023-05-02T20:40:49.193Z,101692.84
2023-05-02T20:43:23.205Z,101692.88
2023-05-02T20:45:54.628Z,101695.56
2023-05-02T20:48:24.563Z,101697.34
2023-05-02T20:50:55.495Z,101697.41
2023-05-02T20:53:25.265Z,101692.09
2023-05-02T20:55:54.145Z,101706.28
2023-05-02T20:58:24.699Z,101702.75
2023-05-02T21:00:54.210Z,101696.59
2023-05-02T21:03:23.468Z,101701.91
2023-05-02T21:05:53.485Z,101707.22
2023-05-02T21:08:22.789Z,101707.28
2023-05-02T21:10:51.617Z,101719.66
2023-05-02T21:13:20.873Z,101713.50
2023-05-02T21:15:51.035Z,101710.84
2023-05-02T21:18:20.108Z,101710.88
2023-05-02T21:20:49.444Z,101706.47
2023-05-02T21:23:18.549Z,101712.66
2023-05-02T21:25:48.723Z,101711.75
2023-05-02T21:28:17.859Z,101704.72
2023-05-02T21:30:46.621Z,101711.78
2023-05-02T21:33:17.751Z,101710.03
2023-05-02T21:35:46.774Z,101710.00
2023-05-02T21:38:15.816Z,101709.16
2023-05-02T21:40:44.673Z,101711.81
2023-05-02T21:43:13.790Z,101718.88
2023-05-02T21:45:46.606Z,101717.06
2023-05-02T21:48:17.602Z,101718.84
2023-05-02T21:50:46.745Z,101727.66
2023-05-02T21:53:15.852Z,101725.00
2023-05-02T21:55:44.732Z,101730.28
2023-05-02T21:58:13.795Z,101719.72
2023-05-02T22:00:43.419Z,101730.28
2023-05-02T22:03:12.697Z,101717.91
2023-05-02T22:05:43.150Z,101721.47
2023-05-02T22:08:13.529Z,101729.34
2023-05-02T22:10:43.271Z,101729.34
2023-05-02T22:13:13.489Z,101726.69
2023-05-02T22:15:42.589Z,101731.06
2023-05-02T22:18:13.857Z,101725.78
2023-05-02T22:20:44.517Z,101725.78
2023-05-02T22:23:13.761Z,101731.06
2023-05-02T22:25:44.359Z,101732.81
2023-05-02T22:28:13.897Z,101731.03
2023-05-02T22:30:43.481Z,101735.44
2023-05-02T22:33:12.917Z,101737.22
2023-05-02T22:35:42.135Z,101738.06
2023-05-02T22:38:15.288Z,101730.16
2023-05-02T22:40:44.220Z,101739.81
2023-05-02T22:43:13.270Z,101735.41
2023-05-02T22:45:42.119Z,101731.84
2023-05-02T22:48:11.839Z,101729.22
2023-05-02T22:50:43.128Z,101730.06
2023-05-02T22:53:13.696Z,101728.31
2023-05-02T22:55:42.472Z,101727.41
2023-05-02T22:58:11.884Z,101730.91
2023-05-02T23:00:40.744Z,101733.53
2023-05-02T23:03:10.555Z,101728.19
2023-05-02T23:05:39.573Z,101727.28
2023-05-02T23:08:08.863Z,101722.91
2023-05-02T23:10:39.093Z,101726.41
2023-05-02T23:13:08.211Z,101729.94
2023-05-02T23:15:36.977Z,101730.81
2023-05-02T23:18:06.972Z,101729.88
2023-05-02T23:20:35.891Z,101736.91
2023-05-02T23:23:05.287Z,101739.56
2023-05-02T23:25:35.994Z,101736.03
2023-05-02T23:28:06.681Z,101733.34
2023-05-02T23:30:35.583Z,101729.81
2023-05-02T23:33:05.078Z,101728.00
2023-05-02T23:35:34.314Z,101727.09
2023-05-02T23:38:05.858Z,101720.03
2023-05-02T23:40:34.833Z,101727.94
2023-05-02T23:43:03.981Z,101721.75
2023-05-02T23:45:34.274Z,101728.78
2023-05-02T23:48:03.594Z,101725.22
2023-05-02T23:50:32.931Z,101719.94
2023-05-02T23:53:02.328Z,101729.59
2023-05-02T23:55:31.359Z,101726.81
2023-05-02T23:58:00.516Z,101736.53
